sensor_id;sensor_type;location;lat;lon;timestamp;pressure;altitude;pressure_sealevel;temperature
63113;BMP280;49206;48.020;21.378;2023-02-28T00:00:11;101659.38;;;-2.08
63113;BMP280;49206;48.020;21.378;2023-02-28T00:01:14;101655.84;;;-2.14
63113;BMP280;49206;48.020;21.378;2023-02-28T00:02:17;101658.03;;;-2.11
63113;BMP280;49206;48.020;21.378;2023-02-28T00:03:20;101653.84;;;-2.12
63113;BMP280;49206;48.020;21.378;2023-02-28T00:04:22;101668.16;;;-2.09
63113;BMP280;49206;48.020;21.378;2023-02-28T00:05:26;101663.41;;;-2.12
63113;BMP280;49206;48.020;21.378;2023-02-28T00:06:29;101663.41;;;-2.12
63113;BMP280;49206;48.020;21.378;2023-02-28T00:07:31;101668.22;;;-2.16
63113;BMP280;49206;48.020;21.378;2023-02-28T00:08:34;101666.19;;;-2.14
63113;BMP280;49206;48.020;21.378;2023-02-28T00:09:36;101669.25;;;-2.23
63113;BMP280;49206;48.020;21.378;2023-02-28T00:10:39;101672.06;;;-2.31
63113;BMP280;49206;48.020;21.378;2023-02-28T00:11:41;101677.81;;;-2.29
63113;BMP280;49206;48.020;21.378;2023-02-28T00:12:44;101681.66;;;-2.38
63113;BMP280;49206;48.020;21.378;2023-02-28T00:13:47;101678.09;;;-2.37
63113;BMP280;49206;48.020;21.378;2023-02-28T00:14:50;101678.84;;;-2.37
63113;BMP280;49206;48.020;21.378;2023-02-28T00:16:01;101683.81;;;-2.35
63113;BMP280;49206;48.020;21.378;2023-02-28T00:17:04;101687.22;;;-2.35
63113;BMP280;49206;48.020;21.378;2023-02-28T00:18:06;101683.88;;;-2.42
63113;BMP280;49206;48.020;21.378;2023-02-28T00:19:09;101692.06;;;-2.45
63113;BMP280;49206;48.020;21.378;2023-02-28T00:20:12;101695.25;;;-2.49
63113;BMP280;49206;48.020;21.378;2023-02-28T00:21:17;101695.59;;;-2.39
63113;BMP280;49206;48.020;21.378;2023-02-28T00:22:20;101692.59;;;-2.36
63113;BMP280;49206;48.020;21.378;2023-02-28T00:23:22;101695.19;;;-2.36
63113;BMP280;49206;48.020;21.378;2023-02-28T00:24:25;101705.69;;;-2.31
63113;BMP280;49206;48.020;21.378;2023-02-28T00:25:27;101699.31;;;-2.29
63113;BMP280;49206;48.020;21.378;2023-02-28T00:26:30;101702.09;;;-2.30
63113;BMP280;49206;48.020;21.378;2023-02-28T00:27:33;101716.84;;;-2.31
63113;BMP280;49206;48.020;21.378;2023-02-28T00:28:35;101706.06;;;-2.28
63113;BMP280;49206;48.020;21.378;2023-02-28T00:29:38;101707.06;;;-2.29
63113;BMP280;49206;48.020;21.378;2023-02-28T00:30:41;101705.28;;;-2.28
63113;BMP280;49206;48.020;21.378;2023-02-28T00:31:43;101708.47;;;-2.26
63113;BMP280;49206;48.020;21.378;2023-02-28T00:32:46;101704.88;;;-2.25
63113;BMP280;49206;48.020;21.378;2023-02-28T00:33:48;101700.50;;;-2.25
63113;BMP280;49206;48.020;21.378;2023-02-28T00:34:51;101699.31;;;-2.29
63113;BMP280;49206;48.020;21.378;2023-02-28T00:36:08;101701.59;;;-2.45
63113;BMP280;49206;48.020;21.378;2023-02-28T00:37:11;101699.72;;;-2.32
63113;BMP280;49206;48.020;21.378;2023-02-28T00:38:15;101700.50;;;-2.31
63113;BMP280;49206;48.020;21.378;2023-02-28T00:39:18;101700.09;;;-2.28
63113;BMP280;49206;48.020;21.378;2023-02-28T00:40:20;101710.84;;;-2.31
63113;BMP280;49206;48.020;21.378;2023-02-28T00:41:23;101706.34;;;-2.42
63113;BMP280;49206;48.020;21.378;2023-02-28T00:42:25;101709.38;;;-2.52
63113;BMP280;49206;48.020;21.378;2023-02-28T00:43:28;101705.63;;;-2.56
63113;BMP280;49206;48.020;21.378;2023-02-28T00:44:30;101705.78;;;-2.51
63113;BMP280;49206;48.020;21.378;2023-02-28T00:45:33;101701.00;;;-2.47
63113;BMP280;49206;48.020;21.378;2023-02-28T00:46:36;101707.16;;;-2.48
63113;BMP280;49206;48.020;21.378;2023-02-28T00:47:38;101705.75;;;-2.44
63113;BMP280;49206;48.020;21.378;2023-02-28T00:48:41;101709.34;;;-2.45
63113;BMP280;49206;48.020;21.378;2023-02-28T00:49:43;101708.34;;;-2.44
63113;BMP280;49206;48.020;21.378;2023-02-28T00:50:48;101705.97;;;-2.46
63113;BMP280;49206;48.020;21.378;2023-02-28T00:51:53;101705.34;;;-2.41
63113;BMP280;49206;48.020;21.378;2023-02-28T00:52:55;101708.88;;;-2.36
63113;BMP280;49206;48.020;21.378;2023-02-28T00:53:58;101704.16;;;-2.39
63113;BMP280;49206;48.020;21.378;2023-02-28T00:55:00;101712.44;;;-2.30
63113;BMP280;49206;48.020;21.378;2023-02-28T00:56:03;101714.00;;;-2.29
63113;BMP280;49206;48.020;21.378;2023-02-28T00:57:06;101717.03;;;-2.32
63113;BMP280;49206;48.020;21.378;2023-02-28T00:58:09;101714.50;;;-2.39
63113;BMP280;49206;48.020;21.378;2023-02-28T00:59:12;101711.25;;;-2.34
63113;BMP280;49206;48.020;21.378;2023-02-28T01:00:15;101709.13;;;-2.37
63113;BMP280;49206;48.020;21.378;2023-02-28T01:01:17;101709.84;;;-2.30
63113;BMP280;49206;48.020;21.378;2023-02-28T01:02:21;101705.88;;;-2.26
63113;BMP280;49206;48.020;21.378;2023-02-28T01:03:24;101712.78;;;-2.20
63113;BMP280;49206;48.020;21.378;2023-02-28T01:04:26;101704.44;;;-2.16
63113;BMP280;49206;48.020;21.378;2023-02-28T01:05:29;101697.88;;;-2.18
63113;BMP280;49206;48.020;21.378;2023-02-28T01:06:31;101693.72;;;-2.19
63113;BMP280;49206;48.020;21.378;2023-02-28T01:07:34;101703.47;;;-2.21
63113;BMP280;49206;48.020;21.378;2023-02-28T01:08:36;101708.06;;;-2.23
63113;BMP280;49206;48.020;21.378;2023-02-28T01:09:39;101710.38;;;-2.15
63113;BMP280;49206;48.020;21.378;2023-02-28T01:10:42;101707.84;;;-2.22
63113;BMP280;49206;48.020;21.378;2023-02-28T01:11:44;101698.72;;;-2.24
63113;BMP280;49206;48.020;21.378;2023-02-28T01:12:47;101694.53;;;-2.25
63113;BMP280;49206;48.020;21.378;2023-02-28T01:13:50;101701.75;;;-2.40
63113;BMP280;49206;48.020;21.378;2023-02-28T01:14:52;101701.78;;;-2.47
63113;BMP280;49206;48.020;21.378;2023-02-28T01:15:56;101699.41;;;-2.48
63113;BMP280;49206;48.020;21.378;2023-02-28T01:16:59;101702.28;;;-2.32
63113;BMP280;49206;48.020;21.378;2023-02-28T01:18:02;101698.13;;;-2.26
63113;BMP280;49206;48.020;21.378;2023-02-28T01:19:05;101700.09;;;-2.28
63113;BMP280;49206;48.020;21.378;2023-02-28T01:20:08;101701.88;;;-2.29
63113;BMP280;49206;48.020;21.378;2023-02-28T01:21:17;101707.25;;;-2.24
63113;BMP280;49206;48.020;21.378;2023-02-28T01:22:19;101708.03;;;-2.17
63113;BMP280;49206;48.020;21.378;2023-02-28T01:23:22;101709.19;;;-2.13
63113;BMP280;49206;48.020;21.378;2023-02-28T01:24:28;101705.19;;;-2.15
63113;BMP280;49206;48.020;21.378;2023-02-28T01:25:34;101711.00;;;-2.20
63113;BMP280;49206;48.020;21.378;2023-02-28T01:26:38;101710.97;;;-2.13
63113;BMP280;49206;48.020;21.378;2023-02-28T01:27:42;101713.53;;;-2.07
63113;BMP280;49206;48.020;21.378;2023-02-28T01:28:44;101711.09;;;-2.02
63113;BMP280;49206;48.020;21.378;2023-02-28T01:29:47;101713.03;;;-1.97
63113;BMP280;49206;48.020;21.378;2023-02-28T01:30:50;101715.09;;;-2.06
63113;BMP280;49206;48.020;21.378;2023-02-28T01:31:53;101720.84;;;-2.04
63113;BMP280;49206;48.020;21.378;2023-02-28T01:32:55;101717.53;;;-2.11
63113;BMP280;49206;48.020;21.378;2023-02-28T01:33:59;101717.28;;;-2.03
63113;BMP280;49206;48.020;21.378;2023-02-28T01:35:03;101721.41;;;-1.95
63113;BMP280;49206;48.020;21.378;2023-02-28T01:36:09;101717.44;;;-1.98
63113;BMP280;49206;48.020;21.378;2023-02-28T01:37:12;101719.19;;;-1.92
63113;BMP280;49206;48.020;21.378;2023-02-28T01:38:19;101720.53;;;-1.89
63113;BMP280;49206;48.020;21.378;2023-02-28T01:39:25;101720.72;;;-1.84
63113;BMP280;49206;48.020;21.378;2023-02-28T01:40:27;101715.16;;;-1.81
63113;BMP280;49206;48.020;21.378;2023-02-28T01:41:32;101714.50;;;-1.77
63113;BMP280;49206;48.020;21.378;2023-02-28T01:42:35;101715.72;;;-1.79
63113;BMP280;49206;48.020;21.378;2023-02-28T01:46:09;101715.66;;;-1.73
63113;BMP280;49206;48.020;21.378;2023-02-28T01:47:11;101719.22;;;-1.67
63113;BMP280;49206;48.020;21.378;2023-02-28T01:48:14;101714.25;;;-1.69
63113;BMP280;49206;48.020;21.378;2023-02-28T01:49:18;101714.41;;;-1.64
63113;BMP280;49206;48.020;21.378;2023-02-28T01:50:25;101714.78;;;-1.60
63113;BMP280;49206;48.020;21.378;2023-02-28T01:51:36;101708.44;;;-1.64
63113;BMP280;49206;48.020;21.378;2023-02-28T01:52:39;101709.66;;;-1.67
63113;BMP280;49206;48.020;21.378;2023-02-28T01:53:47;101721.38;;;-1.64
63113;BMP280;49206;48.020;21.378;2023-02-28T01:54:52;101720.94;;;-1.61
63113;BMP280;49206;48.020;21.378;2023-02-28T01:55:56;101720.94;;;-1.61
63113;BMP280;49206;48.020;21.378;2023-02-28T01:57:07;101735.50;;;-1.60
63113;BMP280;49206;48.020;21.378;2023-02-28T01:58:12;101727.28;;;-1.57
63113;BMP280;49206;48.020;21.378;2023-02-28T01:59:36;101723.84;;;-1.51
63113;BMP280;49206;48.020;21.378;2023-02-28T02:00:40;101732.56;;;-1.46
63113;BMP280;49206;48.020;21.378;2023-02-28T02:01:46;101727.38;;;-1.46
63113;BMP280;49206;48.020;21.378;2023-02-28T02:02:51;101732.91;;;-1.42
63113;BMP280;49206;48.020;21.378;2023-02-28T02:03:58;101727.31;;;-1.39
63113;BMP280;49206;48.020;21.378;2023-02-28T02:06:05;101738.84;;;-1.35
63113;BMP280;49206;48.020;21.378;2023-02-28T02:07:09;101734.06;;;-1.32
63113;BMP280;49206;48.020;21.378;2023-02-28T02:08:17;101725.31;;;-1.37
63113;BMP280;49206;48.020;21.378;2023-02-28T02:09:19;101724.50;;;-1.31
63113;BMP280;49206;48.020;21.378;2023-02-28T02:10:31;101728.44;;;-1.29
63113;BMP280;49206;48.020;21.378;2023-02-28T02:11:35;101731.59;;;-1.27
63113;BMP280;49206;48.020;21.378;2023-02-28T02:15:34;101736.22;;;-1.29
63113;BMP280;49206;48.020;21.378;2023-02-28T02:17:04;101729.25;;;-1.28
63113;BMP280;49206;48.020;21.378;2023-02-28T02:18:44;101732.22;;;-1.25
63113;BMP280;49206;48.020;21.378;2023-02-28T02:26:27;101730.63;;;-1.26
63113;BMP280;49206;48.020;21.378;2023-02-28T02:33:15;101731.84;;;-1.10
63113;BMP280;49206;48.020;21.378;2023-02-28T02:36:39;101727.81;;;-1.06
63113;BMP280;49206;48.020;21.378;2023-02-28T02:37:53;101736.81;;;-1.09
63113;BMP280;49206;48.020;21.378;2023-02-28T02:39:30;101735.03;;;-1.08
63113;BMP280;49206;48.020;21.378;2023-02-28T02:40:50;101740.34;;;-1.03
63113;BMP280;49206;48.020;21.378;2023-02-28T02:41:59;101741.16;;;-1.03
63113;BMP280;49206;48.020;21.378;2023-02-28T02:43:38;101735.50;;;-1.00
63113;BMP280;49206;48.020;21.378;2023-02-28T02:44:48;101740.69;;;-1.00
63113;BMP280;49206;48.020;21.378;2023-02-28T02:45:56;101730.47;;;-0.95
63113;BMP280;49206;48.020;21.378;2023-02-28T02:47:14;101739.69;;;-0.99
63113;BMP280;49206;48.020;21.378;2023-02-28T02:48:19;101733.72;;;-0.99
63113;BMP280;49206;48.020;21.378;2023-02-28T02:49:35;101733.31;;;-0.96
63113;BMP280;49206;48.020;21.378;2023-02-28T02:50:43;101741.44;;;-0.93
63113;BMP280;49206;48.020;21.378;2023-02-28T02:51:48;101735.59;;;-0.88
63113;BMP280;49206;48.020;21.378;2023-02-28T02:52:54;101731.97;;;-0.87
63113;BMP280;49206;48.020;21.378;2023-02-28T02:54:18;101736.38;;;-0.88
63113;BMP280;49206;48.020;21.378;2023-02-28T02:55:23;101737.16;;;-0.87
63113;BMP280;49206;48.020;21.378;2023-02-28T02:56:28;101731.75;;;-0.86
63113;BMP280;49206;48.020;21.378;2023-02-28T02:58:49;101740.28;;;-0.79
63113;BMP280;49206;48.020;21.378;2023-02-28T02:59:53;101741.63;;;-0.76
63113;BMP280;49206;48.020;21.378;2023-02-28T03:00:59;101736.44;;;-0.76
63113;BMP280;49206;48.020;21.378;2023-02-28T03:02:04;101735.09;;;-0.79
63113;BMP280;49206;48.020;21.378;2023-02-28T03:03:09;101745.00;;;-0.76
63113;BMP280;49206;48.020;21.378;2023-02-28T03:04:16;101744.22;;;-0.76
63113;BMP280;49206;48.020;21.378;2023-02-28T03:05:27;101736.03;;;-0.73
63113;BMP280;49206;48.020;21.378;2023-02-28T03:06:30;101744.94;;;-0.69
63113;BMP280;49206;48.020;21.378;2023-02-28T03:07:32;101738.75;;;-0.68
63113;BMP280;49206;48.020;21.378;2023-02-28T03:08:37;101739.97;;;-0.71
63113;BMP280;49206;48.020;21.378;2023-02-28T03:09:50;101741.78;;;-0.71
63113;BMP280;49206;48.020;21.378;2023-02-28T03:10:59;101738.16;;;-0.70
63113;BMP280;49206;48.020;21.378;2023-02-28T03:12:03;101736.16;;;-0.68
63113;BMP280;49206;48.020;21.378;2023-02-28T03:14:23;101743.69;;;-0.67
63113;BMP280;49206;48.020;21.378;2023-02-28T03:15:36;101739.59;;;-0.74
63113;BMP280;49206;48.020;21.378;2023-02-28T03:17:20;101734.34;;;-0.68
63113;BMP280;49206;48.020;21.378;2023-02-28T03:18:32;101737.31;;;-0.64
63113;BMP280;49206;48.020;21.378;2023-02-28T03:19:55;101734.47;;;-0.63
63113;BMP280;49206;48.020;21.378;2023-02-28T03:22:40;101735.34;;;-0.69
63113;BMP280;49206;48.020;21.378;2023-02-28T03:23:55;101731.09;;;-0.63
63113;BMP280;49206;48.020;21.378;2023-02-28T03:26:23;101729.06;;;-0.61
63113;BMP280;49206;48.020;21.378;2023-02-28T03:27:31;101734.06;;;-0.60
63113;BMP280;49206;48.020;21.378;2023-02-28T03:28:50;101732.25;;;-0.59
63113;BMP280;49206;48.020;21.378;2023-02-28T03:30:16;101735.63;;;-0.59
63113;BMP280;49206;48.020;21.378;2023-02-28T03:31:25;101739.81;;;-0.58
63113;BMP280;49206;48.020;21.378;2023-02-28T03:32:34;101736.66;;;-0.60
63113;BMP280;49206;48.020;21.378;2023-02-28T03:34:06;101729.22;;;-0.56
63113;BMP280;49206;48.020;21.378;2023-02-28T03:35:14;101735.53;;;-0.52
63113;BMP280;49206;48.020;21.378;2023-02-28T03:36:29;101735.69;;;-0.47
63113;BMP280;49206;48.020;21.378;2023-02-28T03:37:34;101735.91;;;-0.49
63113;BMP280;49206;48.020;21.378;2023-02-28T03:38:42;101733.88;;;-0.47
63113;BMP280;49206;48.020;21.378;2023-02-28T03:39:51;101737.84;;;-0.44
63113;BMP280;49206;48.020;21.378;2023-02-28T03:41:27;101740.31;;;-0.49
63113;BMP280;49206;48.020;21.378;2023-02-28T03:42:36;101734.91;;;-0.48
63113;BMP280;49206;48.020;21.378;2023-02-28T03:43:41;101737.25;;;-0.46
63113;BMP280;49206;48.020;21.378;2023-02-28T03:44:49;101736.19;;;-0.39
63113;BMP280;49206;48.020;21.378;2023-02-28T03:45:54;101733.81;;;-0.40
63113;BMP280;49206;48.020;21.378;2023-02-28T03:47:04;101735.94;;;-0.37
63113;BMP280;49206;48.020;21.378;2023-02-28T03:49:13;101744.53;;;-0.37
63113;BMP280;49206;48.020;21.378;2023-02-28T03:50:01;101742.16;;;-0.38
63113;BMP280;49206;48.020;21.378;2023-02-28T03:51:10;101746.19;;;-0.42
63113;BMP280;49206;48.020;21.378;2023-02-28T03:52:14;101745.97;;;-0.41
63113;BMP280;49206;48.020;21.378;2023-02-28T03:53:30;101748.56;;;-0.41
63113;BMP280;49206;48.020;21.378;2023-02-28T03:54:37;101737.75;;;-0.38
63113;BMP280;49206;48.020;21.378;2023-02-28T03:55:54;101743.06;;;-0.33
63113;BMP280;49206;48.020;21.378;2023-02-28T03:57:07;101742.28;;;-0.33
63113;BMP280;49206;48.020;21.378;2023-02-28T03:59:30;101740.13;;;-0.36
63113;BMP280;49206;48.020;21.378;2023-02-28T04:00:37;101739.69;;;-0.33
63113;BMP280;49206;48.020;21.378;2023-02-28T04:01:44;101741.72;;;-0.35
63113;BMP280;49206;48.020;21.378;2023-02-28T04:02:47;101734.50;;;-0.33
63113;BMP280;49206;48.020;21.378;2023-02-28T04:03:54;101729.97;;;-0.38
63113;BMP280;49206;48.020;21.378;2023-02-28T04:04:57;101740.22;;;-0.43
63113;BMP280;49206;48.020;21.378;2023-02-28T04:05:59;101734.56;;;-0.40
63113;BMP280;49206;48.020;21.378;2023-02-28T04:07:07;101733.81;;;-0.40
63113;BMP280;49206;48.020;21.378;2023-02-28T04:08:09;101736.47;;;-0.47
63113;BMP280;49206;48.020;21.378;2023-02-28T04:09:13;101730.50;;;-0.47
63113;BMP280;49206;48.020;21.378;2023-02-28T04:10:16;101739.06;;;-0.47
63113;BMP280;49206;48.020;21.378;2023-02-28T04:11:32;101744.25;;;-0.47
63113;BMP280;49206;48.020;21.378;2023-02-28T04:12:35;101738.47;;;-0.49
63113;BMP280;49206;48.020;21.378;2023-02-28T04:13:38;101738.13;;;-0.52
63113;BMP280;49206;48.020;21.378;2023-02-28T04:14:40;101743.53;;;-0.54
63113;BMP280;49206;48.020;21.378;2023-02-28T04:15:42;101743.53;;;-0.54
63113;BMP280;49206;48.020;21.378;2023-02-28T04:16:45;101741.16;;;-0.55
63113;BMP280;49206;48.020;21.378;2023-02-28T04:17:48;101741.97;;;-0.55
63113;BMP280;49206;48.020;21.378;2023-02-28T04:18:50;101746.34;;;-0.55
63113;BMP280;49206;48.020;21.378;2023-02-28T04:19:53;101744.00;;;-0.57
63113;BMP280;49206;48.020;21.378;2023-02-28T04:21:00;101741.63;;;-0.58
63113;BMP280;49206;48.020;21.378;2023-02-28T04:22:02;101742.03;;;-0.61
63113;BMP280;49206;48.020;21.378;2023-02-28T04:23:04;101745.66;;;-0.62
63113;BMP280;49206;48.020;21.378;2023-02-28T04:24:09;101746.88;;;-0.65
63113;BMP280;49206;48.020;21.378;2023-02-28T04:25:16;101742.03;;;-0.61
63113;BMP280;49206;48.020;21.378;2023-02-28T04:26:18;101737.75;;;-0.67
63113;BMP280;49206;48.020;21.378;2023-02-28T04:27:21;101744.16;;;-0.70
63113;BMP280;49206;48.020;21.378;2023-02-28T04:28:24;101743.13;;;-0.69
63113;BMP280;49206;48.020;21.378;2023-02-28T04:29:28;101744.16;;;-0.70
63113;BMP280;49206;48.020;21.378;2023-02-28T04:30:31;101745.53;;;-0.67
63113;BMP280;49206;48.020;21.378;2023-02-28T04:31:34;101740.53;;;-0.69
63113;BMP280;49206;48.020;21.378;2023-02-28T04:32:36;101738.16;;;-0.70
63113;BMP280;49206;48.020;21.378;2023-02-28T04:33:39;101734.56;;;-0.69
63113;BMP280;49206;48.020;21.378;2023-02-28T04:34:41;101738.16;;;-0.70
63113;BMP280;49206;48.020;21.378;2023-02-28T04:35:44;101738.16;;;-0.70
63113;BMP280;49206;48.020;21.378;2023-02-28T04:36:47;101741.34;;;-0.68
63113;BMP280;49206;48.020;21.378;2023-02-28T04:38:12;101739.41;;;-0.73
63113;BMP280;49206;48.020;21.378;2023-02-28T04:39:16;101738.63;;;-0.73
63113;BMP280;49206;48.020;21.378;2023-02-28T04:40:20;101738.97;;;-0.70
63113;BMP280;49206;48.020;21.378;2023-02-28T04:41:23;101736.38;;;-0.70
63113;BMP280;49206;48.020;21.378;2023-02-28T04:42:25;101732.34;;;-0.66
63113;BMP280;49206;48.020;21.378;2023-02-28T04:43:28;101730.38;;;-0.70
63113;BMP280;49206;48.020;21.378;2023-02-28T04:44:31;101749.56;;;-0.71
63113;BMP280;49206;48.020;21.378;2023-02-28T04:45:34;101727.38;;;-0.67
63113;BMP280;49206;48.020;21.378;2023-02-28T04:46:37;101728.38;;;-0.68
63113;BMP280;49206;48.020;21.378;2023-02-28T04:47:40;101735.56;;;-0.70
63113;BMP280;49206;48.020;21.378;2023-02-28T04:48:50;101739.91;;;-0.64
63113;BMP280;49206;48.020;21.378;2023-02-28T04:49:52;101731.66;;;-0.61
63113;BMP280;49206;48.020;21.378;2023-02-28T04:50:55;101736.84;;;-0.61
63113;BMP280;49206;48.020;21.378;2023-02-28T04:52:02;101735.16;;;-0.67
63113;BMP280;49206;48.020;21.378;2023-02-28T04:53:04;101740.13;;;-0.66
63113;BMP280;49206;48.020;21.378;2023-02-28T04:54:07;101747.31;;;-0.68
63113;BMP280;49206;48.020;21.378;2023-02-28T04:55:09;101746.53;;;-0.68
63113;BMP280;49206;48.020;21.378;2023-02-28T04:56:15;101739.75;;;-0.69
63113;BMP280;49206;48.020;21.378;2023-02-28T04:57:18;101747.09;;;-0.66
63113;BMP280;49206;48.020;21.378;2023-02-28T04:58:24;101745.66;;;-0.62
63113;BMP280;49206;48.020;21.378;2023-02-28T04:59:26;101746.81;;;-0.58
63113;BMP280;49206;48.020;21.378;2023-02-28T05:00:28;101741.91;;;-0.66
63113;BMP280;49206;48.020;21.378;2023-02-28T05:01:33;101748.47;;;-0.64
63113;BMP280;49206;48.020;21.378;2023-02-28T05:02:35;101737.31;;;-0.64
63113;BMP280;49206;48.020;21.378;2023-02-28T05:03:39;101748.38;;;-0.57
63113;BMP280;49206;48.020;21.378;2023-02-28T05:04:42;101739.03;;;-0.58
63113;BMP280;49206;48.020;21.378;2023-02-28T05:05:45;101739.44;;;-0.61
63113;BMP280;49206;48.020;21.378;2023-02-28T05:06:47;101742.63;;;-0.59
63113;BMP280;49206;48.020;21.378;2023-02-28T05:07:50;101742.75;;;-0.54
63113;BMP280;49206;48.020;21.378;2023-02-28T05:08:52;101749.97;;;-0.56
63113;BMP280;49206;48.020;21.378;2023-02-28T05:09:55;101744.78;;;-0.56
63113;BMP280;49206;48.020;21.378;2023-02-28T05:10:57;101749.97;;;-0.56
63113;BMP280;49206;48.020;21.378;2023-02-28T05:12:00;101747.59;;;-0.58
63113;BMP280;49206;48.020;21.378;2023-02-28T05:13:03;101748.38;;;-0.57
63113;BMP280;49206;48.020;21.378;2023-02-28T05:14:10;101747.59;;;-0.58
63113;BMP280;49206;48.020;21.378;2023-02-28T05:15:14;101751.19;;;-0.59
63113;BMP280;49206;48.020;21.378;2023-02-28T05:16:17;101746.81;;;-0.58
63113;BMP280;49206;48.020;21.378;2023-02-28T05:17:20;101744.00;;;-0.57
63113;BMP280;49206;48.020;21.378;2023-02-28T05:18:23;101746.81;;;-0.58
63113;BMP280;49206;48.020;21.378;2023-02-28T05:19:25;101746.00;;;-0.59
63113;BMP280;49206;48.020;21.378;2023-02-28T05:20:27;101754.94;;;-0.55
63113;BMP280;49206;48.020;21.378;2023-02-28T05:21:31;101753.50;;;-0.51
63113;BMP280;49206;48.020;21.378;2023-02-28T05:22:34;101752.03;;;-0.47
63113;BMP280;49206;48.020;21.378;2023-02-28T05:23:37;101755.28;;;-0.51
63113;BMP280;49206;48.020;21.378;2023-02-28T05:24:39;101762.78;;;-0.43
63113;BMP280;49206;48.020;21.378;2023-02-28T05:25:42;101764.56;;;-0.44
63113;BMP280;49206;48.020;21.378;2023-02-28T05:26:44;101767.53;;;-0.40
63113;BMP280;49206;48.020;21.378;2023-02-28T05:27:46;101760.19;;;-0.43
63113;BMP280;49206;48.020;21.378;2023-02-28T05:28:49;101768.09;;;-0.38
63113;BMP280;49206;48.020;21.378;2023-02-28T05:29:52;101766.94;;;-0.42
63113;BMP280;49206;48.020;21.378;2023-02-28T05:30:55;101774.16;;;-0.44
63113;BMP280;49206;48.020;21.378;2023-02-28T05:31:57;101776.56;;;-0.43
63113;BMP280;49206;48.020;21.378;2023-02-28T05:33:00;101770.97;;;-0.46
63113;BMP280;49206;48.020;21.378;2023-02-28T05:34:02;101769.75;;;-0.44
63113;BMP280;49206;48.020;21.378;2023-02-28T05:35:06;101769.09;;;-0.39
63113;BMP280;49206;48.020;21.378;2023-02-28T05:36:09;101770.47;;;-0.37
63113;BMP280;49206;48.020;21.378;2023-02-28T05:37:12;101776.22;;;-0.35
63113;BMP280;49206;48.020;21.378;2023-02-28T05:38:15;101774.44;;;-0.34
63113;BMP280;49206;48.020;21.378;2023-02-28T05:39:18;101778.59;;;-0.33
63113;BMP280;49206;48.020;21.378;2023-02-28T05:40:20;101784.19;;;-0.30
63113;BMP280;49206;48.020;21.378;2023-02-28T05:41:23;101776.63;;;-0.31
63113;BMP280;49206;48.020;21.378;2023-02-28T05:42:25;101778.75;;;-0.28
63113;BMP280;49206;48.020;21.378;2023-02-28T05:43:28;101775.41;;;-0.29
63113;BMP280;49206;48.020;21.378;2023-02-28T05:44:30;101778.34;;;-0.25
63113;BMP280;49206;48.020;21.378;2023-02-28T05:45:33;101785.91;;;-0.24
63113;BMP280;49206;48.020;21.378;2023-02-28T05:46:36;101791.09;;;-0.24
63113;BMP280;49206;48.020;21.378;2023-02-28T05:47:39;101782.28;;;-0.23
63113;BMP280;49206;48.020;21.378;2023-02-28T05:48:42;101781.06;;;-0.20
63113;BMP280;49206;48.020;21.378;2023-02-28T05:49:45;101781.66;;;-0.18
63113;BMP280;49206;48.020;21.378;2023-02-28T05:50:47;101783.56;;;-0.14
63113;BMP280;49206;48.020;21.378;2023-02-28T05:51:50;101788.75;;;-0.14
63113;BMP280;49206;48.020;21.378;2023-02-28T05:52:52;101778.94;;;-0.12
63113;BMP280;49206;48.020;21.378;2023-02-28T05:53:58;101778.28;;;-0.07
63113;BMP280;49206;48.020;21.378;2023-02-28T05:55:01;101775.69;;;-0.07
63113;BMP280;49206;48.020;21.378;2023-02-28T05:56:04;101772.88;;;-0.06
63113;BMP280;49206;48.020;21.378;2023-02-28T05:57:08;101776.03;;;-0.04
63113;BMP280;49206;48.020;21.378;2023-02-28T05:58:25;101776.63;;;-0.02
63113;BMP280;49206;48.020;21.378;2023-02-28T05:59:31;101779.22;;;-0.02
63113;BMP280;49206;48.020;21.378;2023-02-28T06:00:34;101780.38;;;0.03
63113;BMP280;49206;48.020;21.378;2023-02-28T06:01:39;101778.75;;;0.01
63113;BMP280;49206;48.020;21.378;2023-02-28T06:02:42;101777.19;;;0.00
63113;BMP280;49206;48.020;21.378;2023-02-28T06:03:44;101774.50;;;0.07
63113;BMP280;49206;48.020;21.378;2023-02-28T06:04:46;101785.00;;;0.12
63113;BMP280;49206;48.020;21.378;2023-02-28T06:05:49;101781.97;;;0.15
63113;BMP280;49206;48.020;21.378;2023-02-28T06:06:52;101775.19;;;0.14
63113;BMP280;49206;48.020;21.378;2023-02-28T06:07:55;101784.09;;;0.18
63113;BMP280;49206;48.020;21.378;2023-02-28T06:08:57;101776.91;;;0.20
63113;BMP280;49206;48.020;21.378;2023-02-28T06:10:00;101778.03;;;0.24
63113;BMP280;49206;48.020;21.378;2023-02-28T06:11:03;101776.00;;;0.26
63113;BMP280;49206;48.020;21.378;2023-02-28T06:12:06;101773.19;;;0.28
63113;BMP280;49206;48.020;21.378;2023-02-28T06:13:09;101775.09;;;0.32
63113;BMP280;49206;48.020;21.378;2023-02-28T06:14:18;101775.09;;;0.32
63113;BMP280;49206;48.020;21.378;2023-02-28T06:15:21;101775.44;;;0.35
63113;BMP280;49206;48.020;21.378;2023-02-28T06:16:24;101775.44;;;0.35
63113;BMP280;49206;48.020;21.378;2023-02-28T06:17:26;101790.00;;;0.36
63113;BMP280;49206;48.020;21.378;2023-02-28T06:18:29;101780.06;;;0.45
63113;BMP280;49206;48.020;21.378;2023-02-28T06:19:37;101784.91;;;0.41
63113;BMP280;49206;48.020;21.378;2023-02-28T06:20:40;101774.88;;;0.45
63113;BMP280;49206;48.020;21.378;2023-02-28T06:21:44;101782.44;;;0.46
63113;BMP280;49206;48.020;21.378;2023-02-28T06:22:47;101776.59;;;0.51
63113;BMP280;49206;48.020;21.378;2023-02-28T06:23:50;101782.34;;;0.53
63113;BMP280;49206;48.020;21.378;2023-02-28T06:24:52;101781.09;;;0.55
63113;BMP280;49206;48.020;21.378;2023-02-28T06:25:54;101790.72;;;0.67
63113;BMP280;49206;48.020;21.378;2023-02-28T06:27:01;101794.91;;;0.68
63113;BMP280;49206;48.020;21.378;2023-02-28T06:28:07;101791.16;;;0.75
63113;BMP280;49206;48.020;21.378;2023-02-28T06:29:09;101789.13;;;0.77
63113;BMP280;49206;48.020;21.378;2023-02-28T06:30:12;101787.88;;;0.79
63113;BMP280;49206;48.020;21.378;2023-02-28T06:31:20;101796.91;;;0.88
63113;BMP280;49206;48.020;21.378;2023-02-28T06:32:22;101788.34;;;0.88
63113;BMP280;49206;48.020;21.378;2023-02-28T06:33:25;101788.56;;;0.87
63113;BMP280;49206;48.020;21.378;2023-02-28T06:34:27;101787.75;;;0.86
63113;BMP280;49206;48.020;21.378;2023-02-28T06:35:30;101791.06;;;0.93